Time;durP1;ratioP1;P1;durP2;ratioP2;P2;SDS_P1;SDS_P2;PMS_P1;PMS_P2;Temp;Humidity;BMP_temperature;BMP_pressure;BME280_temperature;BME280_humidity;BME280_pressure;Samples;Min_cycle;Max_cycle;Signal;HPM_P1;HPM_P2
2022/03/02 00:01:34;;;;;;;;;;;;;;;4.66;100.00;102565.72;5210775;28;19945;-61
2022/03/02 00:04:04;;;;;;;;;;;;;;;4.69;100.00;102561.84;5211078;28;20357;-61
2022/03/02 00:06:35;;;;;;;;;;;;;;;4.70;100.00;102561.69;5213117;28;20024;-61
2022/03/02 00:09:05;;;;;;;;;;;;;;;4.67;100.00;102562.03;5210909;28;20291;-61
2022/03/02 00:11:35;;;;;;;;;;;;;;;4.63;100.00;102552.69;5230753;28;20238;-61
2022/03/02 00:14:06;;;;;;;;;;;;;;;4.64;100.00;102559.69;5215817;28;19913;-61
2022/03/02 00:16:36;;;;;;;;;;;;;;;4.63;100.00;102558.03;5215284;28;19919;-61
2022/03/02 00:19:08;;;;;;;;;;;;;;;4.62;100.00;102547.53;5214465;28;19971;-61
2022/03/02 00:21:38;;;;;;;;;;;;;;;4.57;100.00;102549.91;5214425;28;19913;-61
2022/03/02 00:24:08;;;;;;;;;;;;;;;4.52;100.00;102550.41;5214047;28;19912;-61
2022/03/02 00:26:39;;;;;;;;;;;;;;;4.50;100.00;102557.78;5214240;28;20295;-61
2022/03/02 00:29:09;;;;;;;;;;;;;;;4.46;100.00;102553.78;5214377;28;19923;-61
2022/03/02 00:31:39;;;;;;;;;;;;;;;4.40;100.00;102555.31;5214550;28;19920;-61
2022/03/02 00:34:10;;;;;;;;;;;;;;;4.35;100.00;102538.94;5214009;28;19913;-61
2022/03/02 00:36:40;;;;;;;;;;;;;;;4.27;100.00;102551.53;5231890;28;19912;-61
2022/03/02 00:39:11;;;;;;;;;;;;;;;4.18;100.00;102549.88;5232848;28;20031;-61
2022/03/02 00:41:41;;;;;;;;;;;;;;;4.14;100.00;102545.88;5214143;28;19916;-61
2022/03/02 00:44:13;;;;;;;;;;;;;;;4.12;100.00;102538.03;5213309;28;20334;-64
2022/03/02 00:46:44;;;;;;;;;;;;;;;4.10;100.00;102537.38;5213770;28;19983;-60
2022/03/02 00:49:14;;;;;;;;;;;;;;;4.11;100.00;102536.38;5213271;28;19921;-60
2022/03/02 00:51:45;;;;;;;;;;;;;;;4.14;100.00;102532.53;5213471;28;19912;-62
2022/03/02 00:54:15;;;;;;;;;;;;;;;4.16;100.00;102533.19;5231230;28;19905;-62
2022/03/02 00:56:45;;;;;;;;;;;;;;;4.15;100.00;102535.03;5231838;28;19920;-62
2022/03/02 00:59:16;;;;;;;;;;;;;;;4.12;100.00;102534.53;5213186;28;19913;-62
2022/03/02 01:01:46;;;;;;;;;;;;;;;4.08;100.00;102534.88;5230500;28;20376;-61
2022/03/02 01:04:17;;;;;;;;;;;;;;;4.02;100.00;102535.59;5230579;28;20303;-61
2022/03/02 01:06:47;;;;;;;;;;;;;;;4.00;100.00;102534.91;5212412;28;19955;-61
2022/03/02 01:09:17;;;;;;;;;;;;;;;4.00;100.00;102529.56;5213487;28;19962;-61
2022/03/02 01:11:47;;;;;;;;;;;;;;;4.00;100.00;102539.44;5212798;28;20023;-61
2022/03/02 01:14:18;;;;;;;;;;;;;;;3.95;100.00;102531.09;5212269;28;20332;-61
2022/03/02 01:16:48;;;;;;;;;;;;;;;3.90;100.00;102538.78;5212560;28;19917;-61
2022/03/02 01:19:19;;;;;;;;;;;;;;;3.84;100.00;102537.63;5230187;28;19935;-61
2022/03/02 01:21:50;;;;;;;;;;;;;;;3.82;100.00;102531.59;5212166;28;19919;-61
2022/03/02 01:24:20;;;;;;;;;;;;;;;3.76;100.00;102537.63;5212300;28;19944;-61
2022/03/02 01:26:50;;;;;;;;;;;;;;;3.74;100.00;102534.31;5229815;28;20369;-61
2022/03/02 01:29:20;;;;;;;;;;;;;;;3.74;100.00;102545.00;5212288;28;19960;-61
2022/03/02 01:31:51;;;;;;;;;;;;;;;3.68;100.00;102535.81;5211855;28;19913;-61
2022/03/02 01:34:21;;;;;;;;;;;;;;;3.63;100.00;102534.66;5211762;28;20269;-61
2022/03/02 01:36:51;;;;;;;;;;;;;;;3.60;100.00;102532.31;5211601;28;19940;-61
2022/03/02 01:39:22;;;;;;;;;;;;;;;3.56;100.00;102537.16;5210852;28;20019;-61
2022/03/02 01:41:52;;;;;;;;;;;;;;;3.54;100.00;102527.66;5211256;28;20344;-61
2022/03/02 01:44:22;;;;;;;;;;;;;;;3.52;100.00;102535.00;5210764;28;19942;-61
2022/03/02 01:46:53;;;;;;;;;;;;;;;3.51;100.00;102526.16;5210630;28;19916;-61
2022/03/02 01:49:24;;;;;;;;;;;;;;;3.52;100.00;102518.97;5210902;28;19966;-61
2022/03/02 01:51:54;;;;;;;;;;;;;;;3.51;100.00;102519.97;5209632;28;19917;-61
2022/03/02 01:54:24;;;;;;;;;;;;;;;3.51;100.00;102518.13;5209600;28;19916;-61
2022/03/02 01:56:55;;;;;;;;;;;;;;;3.52;100.00;102513.63;5208987;28;20401;-61
2022/03/02 01:59:26;;;;;;;;;;;;;;;3.52;100.00;102510.94;5209394;28;19966;-61
2022/03/02 02:01:56;;;;;;;;;;;;;;;3.53;100.00;102513.47;5208561;28;20003;-61
2022/03/02 02:04:26;;;;;;;;;;;;;;;3.51;100.00;102501.28;5208008;28;19970;-61
2022/03/02 02:06:57;;;;;;;;;;;;;;;3.47;100.00;102519.47;5208333;28;19923;-61
2022/03/02 02:09:27;;;;;;;;;;;;;;;3.44;100.00;102522.50;5209155;28;19936;-61
2022/03/02 02:11:58;;;;;;;;;;;;;;;3.39;100.00;102514.16;5209561;28;19920;-63
2022/03/02 02:14:28;;;;;;;;;;;;;;;3.37;100.00;102505.47;5209378;28;20003;-63
2022/03/02 02:16:58;;;;;;;;;;;;;;;3.36;100.00;102506.47;5208897;28;20012;-60
2022/03/02 02:19:29;;;;;;;;;;;;;;;3.36;100.00;102506.47;5226821;28;20435;-60
2022/03/02 02:21:59;;;;;;;;;;;;;;;3.37;100.00;102505.47;5209006;28;19917;-59
2022/03/02 02:24:30;;;;;;;;;;;;;;;3.36;100.00;102504.66;5226224;28;19985;-62
2022/03/02 02:27:00;;;;;;;;;;;;;;;3.34;100.00;102501.31;5208366;28;19913;-62
2022/03/02 02:29:32;;;;;;;;;;;;;;;3.34;100.00;102493.28;5208749;28;19938;-62
2022/03/02 02:32:03;;;;;;;;;;;;;;;3.34;100.00;102495.97;5208770;28;20377;-62
2022/03/02 02:34:34;;;;;;;;;;;;;;;3.32;100.00;102489.97;5208363;28;20103;-62
2022/03/02 02:37:05;;;;;;;;;;;;;;;3.31;100.00;102485.63;5226686;28;20413;-62
2022/03/02 02:39:36;;;;;;;;;;;;;;;3.31;100.00;102485.63;5208630;28;19917;-62
2022/03/02 02:42:08;;;;;;;;;;;;;;;3.31;100.00;102474.94;5208498;28;19966;-62
2022/03/02 02:44:38;;;;;;;;;;;;;;;3.32;100.00;102479.28;5208229;28;19913;-62
2022/03/02 02:47:08;;;;;;;;;;;;;;;3.33;100.00;102470.25;5226533;28;19935;-62
2022/03/02 02:49:38;;;;;;;;;;;;;;;3.33;100.00;102474.78;5208409;28;19975;-62
2022/03/02 02:52:09;;;;;;;;;;;;;;;3.32;100.00;102468.59;5226227;28;19967;-62
2022/03/02 02:54:42;;;;;;;;;;;;;;;3.34;100.00;102463.94;5207931;28;20015;-62
2022/03/02 02:57:12;;;;;;;;;;;;;;;3.35;100.00;102460.25;5208426;28;20351;-62
2022/03/02 02:59:43;;;;;;;;;;;;;;;3.35;100.00;102462.09;5208603;28;20015;-62
2022/03/02 03:02:13;;;;;;;;;;;;;;;3.36;100.00;102459.25;5226132;28;19913;-62
2022/03/02 03:04:44;;;;;;;;;;;;;;;3.36;100.00;102456.59;5208141;28;20371;-62
2022/03/02 03:07:15;;;;;;;;;;;;;;;3.38;100.00;102462.59;5208347;28;20273;-62
2022/03/02 03:09:46;;;;;;;;;;;;;;;3.38;100.00;102459.09;5208326;28;19920;-62
2022/03/02 03:12:16;;;;;;;;;;;;;;;3.42;100.00;102462.25;5208561;28;19917;-62
2022/03/02 03:14:46;;;;;;;;;;;;;;;3.41;100.00;102463.25;5207915;28;20373;-62
2022/03/02 03:17:17;;;;;;;;;;;;;;;3.39;100.00;102464.25;5208626;28;20281;-62
2022/03/02 03:19:47;;;;;;;;;;;;;;;3.39;100.00;102456.25;5208219;28;19912;-62
2022/03/02 03:22:17;;;;;;;;;;;;;;;3.40;100.00;102451.75;5208142;28;19912;-62
2022/03/02 03:24:48;;;;;;;;;;;;;;;3.36;100.00;102453.06;5209464;28;19913;-62
2022/03/02 03:27:18;;;;;;;;;;;;;;;3.33;100.00;102454.25;5212724;28;20338;-62
2022/03/02 03:29:49;;;;;;;;;;;;;;;3.32;100.00;102460.59;5211893;28;20299;-62
2022/03/02 03:32:19;;;;;;;;;;;;;;;3.28;100.00;102458.41;5229864;28;20005;-62
2022/03/02 03:34:50;;;;;;;;;;;;;;;3.25;100.00;102459.59;5211848;28;20420;-62
2022/03/02 03:37:20;;;;;;;;;;;;;;;3.24;100.00;102459.75;5211900;28;19917;-62
2022/03/02 03:39:50;;;;;;;;;;;;;;;3.20;100.00;102456.59;5212281;28;20517;-62
2022/03/02 03:42:23;;;;;;;;;;;;;;;3.20;100.00;102447.75;5211791;28;19913;-62
2022/03/02 03:44:53;;;;;;;;;;;;;;;3.18;100.00;102447.91;5211671;28;20388;-62
2022/03/02 03:47:23;;;;;;;;;;;;;;;3.16;100.00;102447.28;5211982;28;20098;-62
2022/03/02 03:49:54;;;;;;;;;;;;;;;3.15;100.00;102455.44;5211904;28;19963;-62
2022/03/02 03:52:24;;;;;;;;;;;;;;;3.14;100.00;102445.78;5211773;28;19927;-62
2022/03/02 03:54:54;;;;;;;;;;;;;;;3.10;100.00;102445.28;5211163;28;19916;-62
2022/03/02 03:57:25;;;;;;;;;;;;;;;3.09;100.00;102446.28;5211561;28;19924;-62
2022/03/02 03:59:55;;;;;;;;;;;;;;;3.07;100.00;102450.94;5211340;28;19913;-62
2022/03/02 04:02:25;;;;;;;;;;;;;;;3.05;100.00;102445.78;5211113;28;19920;-62
2022/03/02 04:04:56;;;;;;;;;;;;;;;3.07;100.00;102440.25;5210829;28;20168;-62
2022/03/02 04:07:26;;;;;;;;;;;;;;;3.04;100.00;102444.09;5211425;28;19913;-62
2022/03/02 04:09:57;;;;;;;;;;;;;;;3.01;100.00;102427.59;5211312;28;19913;-62
2022/03/02 04:12:27;;;;;;;;;;;;;;;3.01;100.00;102425.75;5211599;28;19912;-62
2022/03/02 04:14:57;;;;;;;;;;;;;;;2.97;100.00;102419.06;5229096;28;20380;-62
2022/03/02 04:17:27;;;;;;;;;;;;;;;2.93;100.00;102419.56;5210907;28;19917;-62
2022/03/02 04:19:58;;;;;;;;;;;;;;;2.91;100.00;102424.25;5211386;28;19920;-62
2022/03/02 04:22:28;;;;;;;;;;;;;;;2.88;100.00;102416.59;5211989;28;19980;-62
2022/03/02 04:24:58;;;;;;;;;;;;;;;2.85;100.00;102422.28;5211776;28;20027;-62
2022/03/02 04:27:29;;;;;;;;;;;;;;;2.81;100.00;102418.25;5211930;28;19939;-62
2022/03/02 04:29:59;;;;;;;;;;;;;;;2.76;100.00;102420.59;5211221;28;19919;-62
2022/03/02 04:32:30;;;;;;;;;;;;;;;2.74;100.00;102417.25;5211998;28;19912;-62
2022/03/02 04:35:00;;;;;;;;;;;;;;;2.70;100.00;102414.06;5212273;28;19917;-61
2022/03/02 04:37:31;;;;;;;;;;;;;;;2.69;100.00;102410.56;5210979;28;19924;-61
2022/03/02 04:40:01;;;;;;;;;;;;;;;2.69;100.00;102409.75;5211847;28;19913;-61
2022/03/02 04:42:31;;;;;;;;;;;;;;;2.69;100.00;102402.56;5229323;28;19921;-61
2022/03/02 04:45:02;;;;;;;;;;;;;;;2.67;100.00;102401.91;5211022;28;19962;-61
2022/03/02 04:47:33;;;;;;;;;;;;;;;2.66;100.00;102399.41;5212482;28;19912;-62
2022/03/02 04:50:04;;;;;;;;;;;;;;;2.62;100.00;102392.72;5229661;28;20293;-62
2022/03/02 04:52:35;;;;;;;;;;;;;;;2.60;100.00;102395.56;5211970;28;19967;-62
2022/03/02 04:55:05;;;;;;;;;;;;;;;2.56;100.00;102394.25;5211877;28;19948;-61
2022/03/02 04:57:37;;;;;;;;;;;;;;;2.54;100.00;102393.59;5229548;28;19971;-61
2022/03/02 05:00:20;;;;;;;;;;;;;;;2.51;100.00;102385.91;5212004;28;19919;-61
2022/03/02 05:02:50;;;;;;;;;;;;;;;2.49;100.00;102387.06;5212304;28;20007;-61
2022/03/02 05:05:22;;;;;;;;;;;;;;;2.46;100.00;102388.25;5211543;28;20385;-61
2022/03/02 05:07:52;;;;;;;;;;;;;;;2.42;100.00;102386.91;5211993;28;19934;-62
2022/03/02 05:10:23;;;;;;;;;;;;;;;2.38;100.00;102388.22;5210981;28;20003;-62
2022/03/02 05:12:53;;;;;;;;;;;;;;;2.34;100.00;102379.72;5211619;28;19913;-62
2022/03/02 05:15:24;;;;;;;;;;;;;;;2.31;100.00;102382.69;5210971;28;20000;-62
2022/03/02 05:17:54;;;;;;;;;;;;;;;2.27;100.00;102385.88;5211144;28;19941;-62
2022/03/02 05:20:25;;;;;;;;;;;;;;;2.24;100.00;102383.53;5211344;28;20337;-62
2022/03/02 05:22:55;;;;;;;;;;;;;;;2.20;100.00;102387.53;5211798;28;19913;-62
2022/03/02 05:25:26;;;;;;;;;;;;;;;2.15;100.00;102384.50;5211404;28;19913;-62
2022/03/02 05:27:56;;;;;;;;;;;;;;;2.11;100.00;102381.34;5212098;28;19913;-61
2022/03/02 05:30:26;;;;;;;;;;;;;;;2.09;100.00;102387.81;5211467;28;19960;-61
2022/03/02 05:32:57;;;;;;;;;;;;;;;2.04;100.00;102389.16;5212803;28;20096;-61
2022/03/02 05:35:27;;;;;;;;;;;;;;;2.03;100.00;102390.13;5229052;28;19999;-61
2022/03/02 05:37:57;;;;;;;;;;;;;;;2.01;100.00;102389.50;5213237;28;19939;-61
2022/03/02 05:40:28;;;;;;;;;;;;;;;2.00;100.00;102389.66;5212749;28;19912;-61
2022/03/02 05:42:59;;;;;;;;;;;;;;;1.97;100.00;102382.00;5218252;22;19930;-63
2022/03/02 05:45:29;;;;;;;;;;;;;;;1.94;100.00;102393.78;5196259;28;20345;-63
2022/03/02 05:47:59;;;;;;;;;;;;;;;1.90;100.00;102381.78;5188086;28;19940;-63
2022/03/02 05:50:30;;;;;;;;;;;;;;;1.84;100.00;102382.44;5206221;28;19954;-63
2022/03/02 05:53:00;;;;;;;;;;;;;;;1.81;100.00;102388.06;5206273;28;20304;-63
2022/03/02 05:55:31;;;;;;;;;;;;;;;1.78;100.00;102391.06;5187592;28;19939;-63
2022/03/02 05:58:01;;;;;;;;;;;;;;;1.76;100.00;102382.41;5187470;28;19963;-63
2022/03/02 06:00:31;;;;;;;;;;;;;;;1.76;100.00;102385.06;5187495;28;20381;-64
2022/03/02 06:03:02;;;;;;;;;;;;;;;1.73;100.00;102384.56;5187318;28;19917;-63
2022/03/02 06:05:32;;;;;;;;;;;;;;;1.69;100.00;102373.41;5186958;28;20431;-63
2022/03/02 06:08:03;;;;;;;;;;;;;;;1.66;100.00;102379.03;5187446;28;19927;-63
2022/03/02 06:10:34;;;;;;;;;;;;;;;1.66;100.00;102382.53;5187351;28;19913;-63
2022/03/02 06:13:05;;;;;;;;;;;;;;;1.66;100.00;102382.53;5187170;28;19927;-63
2022/03/02 06:15:35;;;;;;;;;;;;;;;1.66;100.00;102384.38;5187096;28;20004;-63
2022/03/02 06:18:06;;;;;;;;;;;;;;;1.65;100.00;102386.19;5186965;28;19967;-63
2022/03/02 06:20:36;;;;;;;;;;;;;;;1.62;100.00;102381.19;5186802;28;19920;-63
2022/03/02 06:23:07;;;;;;;;;;;;;;;1.63;100.00;102387.34;5186947;28;20293;-63
2022/03/02 06:25:37;;;;;;;;;;;;;;;1.61;100.00;102392.00;5186823;28;20266;-63
2022/03/02 06:28:08;;;;;;;;;;;;;;;1.54;100.00;102401.59;5186837;28;19921;-63
2022/03/02 06:30:38;;;;;;;;;;;;;;;1.47;100.00;102404.06;5186746;28;19940;-63
2022/03/02 06:33:12;;;;;;;;;;;;;;;1.43;100.00;102408.06;5186834;28;19924;-63
2022/03/02 06:35:42;;;;;;;;;;;;;;;1.35;100.00;102408.00;5186755;28;19917;-62
2022/03/02 06:38:13;;;;;;;;;;;;;;;1.29;100.00;102409.47;5186727;28;19924;-63
2022/03/02 06:41:09;;;;;;;;;;;;;;;1.24;100.00;102405.59;5186890;28;19996;-63
2022/03/02 06:43:45;;;;;;;;;;;;;;;1.21;100.00;102406.75;5176700;28;19980;-63
2022/03/02 06:46:39;;;;;;;;;;;;;;;1.20;100.00;102409.56;5186972;28;20300;-63
2022/03/02 06:49:21;;;;;;;;;;;;;;;1.19;100.00;102406.06;5176501;28;20008;-63
2022/03/02 06:51:55;;;;;;;;;;;;;;;1.20;100.00;102401.56;5186783;28;20071;-63
2022/03/02 06:54:30;;;;;;;;;;;;;;;1.17;100.00;102421.34;5186436;28;20385;-64
2022/03/02 06:57:02;;;;;;;;;;;;;;;1.17;100.00;102399.22;5186625;28;20016;-63
2022/03/02 06:59:40;;;;;;;;;;;;;;;1.16;100.00;102406.38;5187829;28;19913;-63
2022/03/02 07:02:12;;;;;;;;;;;;;;;1.17;100.00;102408.03;5190797;28;19964;-63
2022/03/02 07:04:43;;;;;;;;;;;;;;;1.18;100.00;102407.06;5190506;28;20253;-63
2022/03/02 07:07:13;;;;;;;;;;;;;;;1.19;100.00;102410.56;5190921;28;20327;-63
2022/03/02 07:09:44;;;;;;;;;;;;;;;1.20;100.00;102410.41;5190927;28;19913;-63
2022/03/02 07:12:15;;;;;;;;;;;;;;;1.20;100.00;102405.06;5208270;28;20213;-63
2022/03/02 07:14:45;;;;;;;;;;;;;;;0.30;100.00;102248.56;5190392;28;19917;-63
2022/03/02 07:17:16;;;;;;;;;;;;;;;1.25;100.00;102408.09;5190611;28;19998;-63
2022/03/02 07:19:47;;;;;;;;;;;;;;;1.32;100.00;102403.84;5190621;28;20007;-63
2022/03/02 07:22:19;;;;;;;;;;;;;;;1.41;100.00;102401.22;5208345;28;19959;-63
2022/03/02 07:24:53;;;;;;;;;;;;;;;1.46;100.00;102404.22;5190495;28;20341;-63
2022/03/02 07:27:25;;;;;;;;;;;;;;;1.49;100.00;102403.91;5190778;28;20011;-63
2022/03/02 07:29:55;;;;;;;;;;;;;;;1.51;100.00;102418.72;5190611;28;19960;-63
2022/03/02 07:32:30;;;;;;;;;;;;;;;1.54;100.00;102401.59;5208465;28;19995;-63
2022/03/02 07:35:01;;;;;;;;;;;;;;;1.14;100.00;102325.91;5190177;28;19914;-63
2022/03/02 07:37:32;;;;;;;;;;;;;;;1.65;100.00;102402.19;5190305;28;19977;-63
2022/03/02 07:40:03;;;;;;;;;;;;;;;1.74;100.00;102397.69;5190167;28;19999;-63
2022/03/02 07:42:33;;;;;;;;;;;;;;;1.87;100.00;102407.91;5189909;28;20010;-64
2022/03/02 07:45:04;;;;;;;;;;;;;;;1.98;100.00;102399.63;5189842;28;20019;-63
2022/03/02 07:47:35;;;;;;;;;;;;;;;2.11;100.00;102393.81;5190091;28;19913;-63
2022/03/02 07:50:06;;;;;;;;;;;;;;;2.25;100.00;102393.22;5190000;28;19976;-64
2022/03/02 07:52:37;;;;;;;;;;;;;;;2.45;100.00;102383.91;5190052;28;19920;-64
2022/03/02 07:55:09;;;;;;;;;;;;;;;2.66;100.00;102384.25;5189630;28;20418;-64
2022/03/02 07:57:40;;;;;;;;;;;;;;;2.90;100.00;102383.38;5189936;28;20024;-64
2022/03/02 08:00:11;;;;;;;;;;;;;;;3.06;100.00;102377.22;5189665;28;20437;-63
2022/03/02 08:02:42;;;;;;;;;;;;;;;3.19;100.00;102374.00;5189865;28;20238;-63
2022/03/02 08:05:12;;;;;;;;;;;;;;;3.32;100.00;102376.97;5192018;28;19920;-63
2022/03/02 08:07:43;;;;;;;;;;;;;;;3.44;100.00;102385.47;5192240;28;20279;-63
2022/03/02 08:10:15;;;;;;;;;;;;;;;3.54;100.00;102380.75;5191331;28;19963;-64
2022/03/02 08:12:45;;;;;;;;;;;;;;;3.64;100.00;102381.38;5190878;28;19917;-64
2022/03/02 08:15:16;;;;;;;;;;;;;;;3.77;100.00;102386.16;5189535;28;19935;-64
2022/03/02 08:17:46;;;;;;;;;;;;;;;3.82;100.00;102389.97;5189543;28;20369;-64
2022/03/02 08:20:17;;;;;;;;;;;;;;;3.90;100.00;102387.28;5189482;28;20404;-64
2022/03/02 08:22:51;;;;;;;;;;;;;;;3.97;100.00;102393.59;5189336;28;20436;-64
2022/03/02 08:25:22;;;;;;;;;;;;;;;4.01;100.00;102391.41;5189243;28;19995;-64
2022/03/02 08:27:53;;;;;;;;;;;;;;;3.92;100.00;102397.78;5189187;28;19913;-63
2022/03/02 08:30:23;;;;;;;;;;;;;;;3.90;100.00;102391.78;5189248;28;19913;-64
2022/03/02 08:32:55;;;;;;;;;;;;;;;3.94;100.00;102396.63;5189214;28;19913;-63
2022/03/02 08:35:25;;;;;;;;;;;;;;;3.21;100.00;102276.72;5188850;28;19967;-64
2022/03/02 08:37:56;;;;;;;;;;;;;;;4.05;100.00;102396.22;5189152;28;20316;-63
2022/03/02 08:40:26;;;;;;;;;;;;;;;4.12;100.00;102392.84;5189122;28;19961;-63
2022/03/02 08:43:00;;;;;;;;;;;;;;;4.21;100.00;102381.09;5188818;28;19917;-63
2022/03/02 08:45:30;;;;;;;;;;;;;;;4.24;100.00;102391.44;5188668;28;19913;-63
2022/03/02 08:48:03;;;;;;;;;;;;;;;4.27;100.00;102391.91;5188970;28;20395;-64
2022/03/02 08:50:34;;;;;;;;;;;;;;;4.36;100.00;102384.66;5206649;28;19913;-64
2022/03/02 08:53:05;;;;;;;;;;;;;;;4.47;100.00;102386.09;5188939;28;19913;-63
2022/03/02 08:55:36;;;;;;;;;;;;;;;4.56;100.00;102380.50;5188760;28;20000;-64
2022/03/02 08:58:06;;;;;;;;;;;;;;;4.66;100.00;102385.59;5206564;28;20408;-64
2022/03/02 09:00:37;;;;;;;;;;;;;;;4.72;100.00;102387.56;5188703;28;19992;-64
2022/03/02 09:03:12;;;;;;;;;;;;;;;4.79;100.00;102390.34;5188653;28;19913;-65
2022/03/02 09:05:43;;;;;;;;;;;;;;;4.83;100.00;102386.31;5188804;28;19928;-64
2022/03/02 09:08:13;;;;;;;;;;;;;;;4.88;100.00;102374.06;5188719;28;19917;-65
2022/03/02 09:10:44;;;;;;;;;;;;;;;4.99;100.00;102378.13;5188356;28;20313;-64
2022/03/02 09:13:14;;;;;;;;;;;;;;;5.07;100.00;102373.53;5188327;28;20289;-64
2022/03/02 09:15:44;;;;;;;;;;;;;;;5.15;100.00;102375.31;5188434;28;19913;-65
2022/03/02 09:18:15;;;;;;;;;;;;;;;5.20;100.00;102367.53;5188457;28;19917;-64
2022/03/02 09:20:49;;;;;;;;;;;;;;;5.26;100.00;102363.28;5188441;28;20003;-65
2022/03/02 09:23:21;;;;;;;;;;;;;;;4.94;100.00;102303.72;5187700;28;19935;-64
2022/03/02 09:25:51;;;;;;;;;;;;;;;5.41;100.00;102364.97;5188419;28;19913;-64
2022/03/02 09:28:26;;;;;;;;;;;;;;;5.50;100.00;102346.94;5188519;28;19913;-65
2022/03/02 09:30:57;;;;;;;;;;;;;;;5.67;100.00;102351.09;5188400;28;19985;-64
2022/03/02 09:33:27;;;;;;;;;;;;;;;5.73;100.00;102349.50;5187814;28;19919;-64
2022/03/02 09:36:00;;;;;;;;;;;;;;;5.79;100.00;102346.06;5188262;28;19919;-64
2022/03/02 09:38:32;;;;;;;;;;;;;;;5.88;100.00;102341.41;5188138;28;19987;-64
2022/03/02 09:41:11;;;;;;;;;;;;;;;6.05;100.00;102346.41;5188305;28;19960;-65
2022/03/02 09:43:46;;;;;;;;;;;;;;;6.25;100.00;102343.09;5187565;28;19921;-64
2022/03/02 09:46:18;;;;;;;;;;;;;;;6.44;100.00;102334.41;5205765;28;19940;-64
2022/03/02 09:48:49;;;;;;;;;;;;;;;6.58;99.87;102333.50;5205753;28;19920;-64
2022/03/02 09:51:23;;;;;;;;;;;;;;;6.70;96.49;102326.56;5205393;28;19917;-66
2022/03/02 09:53:54;;;;;;;;;;;;;;;6.87;94.39;102324.44;5187553;28;20019;-64
2022/03/02 09:56:25;;;;;;;;;;;;;;;7.07;92.39;102324.56;5188100;28;19947;-64
2022/03/02 09:58:55;;;;;;;;;;;;;;;7.25;89.73;102330.25;5187714;28;19917;-64
2022/03/02 10:01:26;;;;;;;;;;;;;;;7.41;86.87;102326.44;5187891;28;19913;-64
2022/03/02 10:04:06;;;;;;;;;;;;;;;7.50;86.08;102325.25;5187552;28;19913;-64
2022/03/02 10:06:37;;;;;;;;;;;;;;;7.64;85.90;102326.94;5187863;28;19914;-64
2022/03/02 10:09:09;;;;;;;;;;;;;;;7.73;82.27;102315.00;5187639;28;19913;-64
2022/03/02 10:11:43;;;;;;;;;;;;;;;7.75;80.13;102315.63;5187583;28;19914;-64
2022/03/02 10:14:17;;;;;;;;;;;;;;;7.85;81.83;102317.06;5187363;28;20376;-64
2022/03/02 10:16:51;;;;;;;;;;;;;;;8.02;82.53;102323.75;5187634;28;19913;-64
2022/03/02 10:19:24;;;;;;;;;;;;;;;8.19;80.33;102316.13;5187534;28;19917;-64
2022/03/02 10:22:15;;;;;;;;;;;;;;;8.18;77.93;102317.16;5205236;28;20292;-64
2022/03/02 10:24:48;;;;;;;;;;;;;;;8.20;74.63;102309.72;5147811;28;19929;-65
2022/03/02 10:27:31;;;;;;;;;;;;;;;8.26;72.88;102309.72;5187498;28;19979;-65
2022/03/02 10:30:05;;;;;;;;;;;;;;;8.35;72.14;102313.09;5187129;28;19920;-65
2022/03/02 10:32:37;;;;;;;;;;;;;;;8.35;72.22;102315.78;5187222;28;20002;-64
2022/03/02 10:35:09;;;;;;;;;;;;;;;8.47;72.42;102306.03;5186975;28;19912;-64
2022/03/02 10:37:46;;;;;;;;;;;;;;;8.51;70.60;102306.47;5187080;28;20432;-64
2022/03/02 10:40:24;;;;;;;;;;;;;;;8.64;70.56;102306.47;5186996;28;19917;-64
2022/03/02 10:42:56;;;;;;;;;;;;;;;8.70;67.55;102311.84;5187059;28;19917;-64
2022/03/02 10:45:49;;;;;;;;;;;;;;;8.67;67.89;102303.34;5186841;28;19914;-64
2022/03/02 10:48:28;;;;;;;;;;;;;;;8.93;69.73;102297.94;5187173;28;20404;-64
2022/03/02 10:50:59;;;;;;;;;;;;;;;9.17;70.49;102296.44;5186831;28;20001;-64
2022/03/02 10:53:30;;;;;;;;;;;;;;;9.35;70.78;102288.50;5186752;28;20336;-64
2022/03/02 10:56:03;;;;;;;;;;;;;;;9.51;68.24;102286.38;5187145;28;19914;-64
2022/03/02 10:58:34;;;;;;;;;;;;;;;9.51;66.19;102289.06;5186883;28;19924;-64
2022/03/02 11:01:04;;;;;;;;;;;;;;;9.55;67.33;102288.41;5186654;28;19913;-64
2022/03/02 11:03:35;;;;;;;;;;;;;;;9.70;65.88;102288.97;5204501;28;20212;-63
2022/03/02 11:06:06;;;;;;;;;;;;;;;9.77;63.12;102292.47;5187101;28;20004;-63
2022/03/02 11:08:37;;;;;;;;;;;;;;;9.80;64.08;102283.13;5186850;28;19913;-63
2022/03/02 11:11:08;;;;;;;;;;;;;;;9.94;62.82;102279.28;5186776;28;19921;-63
2022/03/02 11:13:39;;;;;;;;;;;;;;;10.00;63.83;102283.81;5186257;28;19921;-63
2022/03/02 11:16:17;;;;;;;;;;;;;;;10.13;63.88;102281.00;5204478;28;19920;-64
2022/03/02 11:18:52;;;;;;;;;;;;;;;10.29;63.62;102276.16;5186599;28;19960;-64
2022/03/02 11:21:27;;;;;;;;;;;;;;;10.28;61.65;102269.13;5186699;28;19921;-64
2022/03/02 11:24:00;;;;;;;;;;;;;;;10.30;59.92;102278.66;5186641;28;19928;-64
2022/03/02 11:26:34;;;;;;;;;;;;;;;10.36;60.88;102271.56;5186825;28;20372;-64
2022/03/02 11:29:12;;;;;;;;;;;;;;;10.35;61.28;102267.19;5186574;28;19960;-64
2022/03/02 11:31:43;;;;;;;;;;;;;;;10.43;58.83;102266.91;5186684;28;19917;-64
2022/03/02 11:34:20;;;;;;;;;;;;;;;10.52;59.04;102249.38;5186820;28;19959;-64
2022/03/02 11:36:51;;;;;;;;;;;;;;;10.70;57.79;102262.91;5186820;28;19980;-64
2022/03/02 11:39:23;;;;;;;;;;;;;;;10.70;56.08;102260.22;5187231;28;20008;-64
2022/03/02 11:41:58;;;;;;;;;;;;;;;10.79;57.16;102250.78;5204360;28;20035;-64
2022/03/02 11:44:39;;;;;;;;;;;;;;;10.83;55.53;102243.88;5199704;23;19925;-64
2022/03/02 11:47:11;;;;;;;;;;;;;;;10.70;56.86;102249.41;5191042;28;19917;-63
2022/03/02 11:49:42;;;;;;;;;;;;;;;10.89;54.98;102246.75;5191440;28;19913;-63
2022/03/02 11:52:14;;;;;;;;;;;;;;;11.05;52.96;102240.72;5192066;28;19921;-61
2022/03/02 11:54:59;;;;;;;;;;;;;;;11.06;52.34;102235.09;5191754;28;20277;-64
2022/03/02 11:57:31;;;;;;;;;;;;;;;11.28;54.26;102240.88;5191585;28;19917;-63
2022/03/02 12:00:19;;;;;;;;;;;;;;;11.56;52.80;102225.94;5191436;28;19913;-63
2022/03/02 12:02:54;;;;;;;;;;;;;;;11.66;51.08;102226.22;5191152;28;19967;-64
2022/03/02 12:05:27;;;;;;;;;;;;;;;11.83;51.60;102216.44;5191970;28;19924;-64
2022/03/02 12:08:02;;;;;;;;;;;;;;;11.95;49.07;102211.03;5193511;28;19963;-62
2022/03/02 12:10:34;;;;;;;;;;;;;;;11.92;50.47;102214.22;5193368;28;19999;-62
2022/03/02 12:13:05;;;;;;;;;;;;;;;12.16;48.97;102200.47;5192732;28;20237;-62
2022/03/02 12:15:45;;;;;;;;;;;;;;;12.37;49.00;102201.81;5192942;28;20300;-63
2022/03/02 12:18:16;;;;;;;;;;;;;;;12.49;47.85;102207.22;5192914;28;19948;-63
2022/03/02 12:20:54;;;;;;;;;;;;;;;12.49;45.94;102194.50;5192316;28;19975;-63
2022/03/02 12:23:26;;;;;;;;;;;;;;;12.52;45.34;102202.16;5192808;28;19913;-64
2022/03/02 12:25:58;;;;;;;;;;;;;;;12.56;45.94;102193.56;5193713;28;19921;-63
2022/03/02 12:28:29;;;;;;;;;;;;;;;12.47;44.90;102193.06;5192192;28;19914;-63
2022/03/02 12:30:59;;;;;;;;;;;;;;;12.23;45.58;102188.72;5191575;28;19999;-63
2022/03/02 12:33:30;;;;;;;;;;;;;;;12.26;46.66;102190.97;5191547;28;19913;-63
2022/03/02 12:36:00;;;;;;;;;;;;;;;12.33;45.09;102194.38;5191877;28;19917;-63
2022/03/02 12:38:30;;;;;;;;;;;;;;;12.44;44.08;102190.84;5191695;28;19917;-63
2022/03/02 12:41:01;;;;;;;;;;;;;;;12.47;45.39;102182.25;5192004;28;19919;-64
2022/03/02 12:43:31;;;;;;;;;;;;;;;12.59;46.36;102188.50;5191480;28;19946;-63
2022/03/02 12:46:03;;;;;;;;;;;;;;;12.36;44.80;102180.38;5192395;28;20361;-63
2022/03/02 12:48:34;;;;;;;;;;;;;;;12.08;45.77;102171.06;5191932;28;19913;-63
2022/03/02 12:51:05;;;;;;;;;;;;;;;11.83;44.64;102178.56;5210368;28;19920;-63
2022/03/02 12:53:35;;;;;;;;;;;;;;;11.79;45.83;102178.19;5192389;28;20424;-63
2022/03/02 12:56:05;;;;;;;;;;;;;;;11.59;45.18;102166.78;5192891;28;19913;-63
2022/03/02 12:58:37;;;;;;;;;;;;;;;11.57;45.67;102168.06;5192047;28;19928;-63
2022/03/02 13:01:07;;;;;;;;;;;;;;;11.50;46.06;102162.78;5192744;28;19933;-63